createdAt,value
2023-03-29T00:02:31.137Z,4.03
2023-03-29T00:05:01.963Z,3.22
2023-03-29T00:07:30.264Z,2.88
2023-03-29T00:09:56.864Z,4.32
2023-03-29T00:12:23.449Z,4.07
2023-03-29T00:14:50.296Z,2.80
2023-03-29T00:17:16.872Z,3.92
2023-03-29T00:19:45.074Z,6.20
2023-03-29T00:22:11.869Z,3.47
2023-03-29T00:24:38.399Z,5.20
2023-03-29T00:27:04.973Z,3.40
2023-03-29T00:29:32.373Z,2.75
2023-03-29T00:31:59.301Z,6.55
2023-03-29T00:34:30.735Z,3.33
2023-03-29T00:36:58.334Z,3.10
2023-03-29T00:39:26.376Z,3.17
2023-03-29T00:41:53.147Z,5.32
2023-03-29T00:44:58.692Z,4.28
2023-03-29T00:47:46.545Z,3.05
2023-03-29T00:50:18.471Z,2.60
2023-03-29T00:52:51.076Z,5.35
2023-03-29T00:55:21.770Z,4.70
2023-03-29T00:57:49.272Z,6.55
2023-03-29T01:00:20.822Z,7.47
2023-03-29T01:02:54.242Z,3.28
2023-03-29T01:05:34.236Z,4.88
2023-03-29T01:08:06.589Z,3.83
2023-03-29T01:10:40.504Z,4.28
2023-03-29T01:13:12.357Z,6.32
2023-03-29T01:15:42.079Z,2.63
2023-03-29T01:18:09.863Z,4.10
2023-03-29T01:21:14.731Z,5.57
2023-03-29T01:23:58.297Z,3.35
2023-03-29T01:26:41.565Z,3.83
2023-03-29T01:29:16.702Z,4.20
2023-03-29T01:31:52.986Z,3.53
2023-03-29T01:34:27.230Z,4.63
2023-03-29T01:37:04.313Z,7.50
2023-03-29T01:39:34.146Z,4.38
2023-03-29T01:42:22.585Z,7.18
2023-03-29T01:44:55.449Z,5.35
2023-03-29T01:47:27.431Z,3.42
2023-03-29T01:50:05.514Z,7.28
2023-03-29T01:52:38.424Z,4.65
2023-03-29T01:55:10.932Z,4.22
2023-03-29T01:57:41.739Z,4.07
2023-03-29T02:00:14.214Z,3.78
2023-03-29T02:02:44.691Z,5.63
2023-03-29T02:05:14.884Z,4.78
2023-03-29T02:07:44.659Z,4.65
2023-03-29T02:10:12.150Z,8.77
2023-03-29T02:12:38.860Z,2.97
2023-03-29T02:15:10.949Z,4.78
2023-03-29T02:17:37.801Z,3.90
2023-03-29T02:20:22.257Z,5.97
2023-03-29T02:22:54.036Z,5.93
2023-03-29T02:25:22.464Z,3.15
2023-03-29T02:27:49.286Z,4.43
2023-03-29T02:30:18.708Z,4.25
2023-03-29T02:33:02.004Z,4.38
2023-03-29T02:35:36.849Z,3.58
2023-03-29T02:38:07.687Z,7.15
2023-03-29T02:40:37.627Z,3.38
2023-03-29T02:43:06.989Z,4.10
2023-03-29T02:45:36.069Z,4.45
2023-03-29T02:50:37.488Z,5.05
2023-03-29T02:53:14.956Z,5.65
2023-03-29T02:55:46.000Z,4.22
2023-03-29T02:58:15.339Z,5.40
2023-03-29T03:00:45.926Z,3.90
2023-03-29T03:03:13.428Z,6.60
2023-03-29T03:05:40.194Z,4.38
2023-03-29T03:08:07.582Z,6.47
2023-03-29T03:10:35.448Z,5.18
2023-03-29T03:13:03.600Z,6.03
2023-03-29T03:15:32.832Z,5.03
2023-03-29T03:17:59.314Z,3.85
2023-03-29T03:20:27.167Z,5.57
2023-03-29T03:22:57.497Z,4.50
2023-03-29T03:25:24.849Z,6.30
2023-03-29T03:27:51.714Z,4.43
2023-03-29T03:30:21.723Z,5.25
2023-03-29T03:33:11.588Z,4.63
2023-03-29T03:35:57.204Z,5.82
2023-03-29T03:38:24.054Z,3.67
2023-03-29T03:40:57.440Z,6.18
2023-03-29T03:43:25.165Z,3.90
2023-03-29T03:45:51.902Z,6.28
2023-03-29T03:48:23.780Z,5.60
2023-03-29T03:50:59.361Z,5.78
2023-03-29T03:53:31.146Z,6.88
2023-03-29T03:56:09.035Z,3.97
2023-03-29T03:58:46.226Z,4.38
2023-03-29T04:01:13.042Z,6.18
2023-03-29T04:03:47.501Z,5.60
2023-03-29T04:06:16.035Z,5.32
2023-03-29T04:09:03.704Z,4.47
2023-03-29T04:11:37.575Z,5.38
2023-03-29T04:14:05.376Z,4.47
2023-03-29T04:16:55.317Z,6.22
2023-03-29T04:19:40.141Z,4.78
2023-03-29T04:22:06.865Z,6.43
2023-03-29T04:24:33.840Z,6.40
2023-03-29T04:27:23.416Z,5.20
2023-03-29T04:29:50.539Z,5.80
2023-03-29T04:32:25.382Z,4.13
2023-03-29T04:34:57.988Z,6.70
2023-03-29T04:37:24.820Z,3.42
2023-03-29T04:39:54.365Z,5.80
2023-03-29T04:42:22.180Z,6.05
2023-03-29T04:44:48.890Z,4.70
2023-03-29T04:47:22.988Z,5.22
2023-03-29T04:49:57.212Z,3.78
2023-03-29T04:52:34.924Z,5.00
2023-03-29T04:55:04.985Z,8.23
2023-03-29T04:57:41.183Z,5.00
2023-03-29T05:00:15.598Z,4.28
2023-03-29T05:03:06.951Z,4.75
2023-03-29T05:05:37.770Z,6.55
2023-03-29T05:08:04.590Z,4.63
2023-03-29T05:10:43.789Z,4.20
2023-03-29T05:13:11.291Z,4.10
2023-03-29T05:15:41.295Z,4.45
2023-03-29T05:18:08.030Z,6.80
2023-03-29T05:20:34.645Z,5.43
2023-03-29T05:23:01.747Z,5.78
2023-03-29T05:25:53.173Z,6.80
2023-03-29T05:28:20.318Z,7.05
2023-03-29T05:30:47.399Z,4.55
2023-03-29T05:33:20.890Z,6.43
2023-03-29T05:35:47.446Z,3.15
2023-03-29T05:38:13.960Z,6.50
2023-03-29T05:40:41.445Z,4.47
2023-03-29T05:43:24.942Z,6.78
2023-03-29T05:45:55.917Z,7.28
2023-03-29T05:48:27.046Z,6.68
2023-03-29T05:50:56.277Z,4.20
2023-03-29T05:53:24.555Z,3.88
2023-03-29T05:55:51.579Z,5.13
2023-03-29T05:58:21.382Z,4.82
2023-03-29T06:00:49.609Z,4.75
2023-03-29T06:03:33.572Z,7.82
2023-03-29T06:06:04.677Z,8.05
2023-03-29T06:08:34.022Z,4.95
2023-03-29T06:11:18.378Z,5.15
2023-03-29T06:14:03.430Z,4.75
2023-03-29T06:16:30.731Z,6.50
2023-03-29T06:18:57.313Z,4.30
2023-03-29T06:21:26.507Z,5.80
2023-03-29T06:23:54.036Z,6.90
2023-03-29T06:26:21.233Z,5.80
2023-03-29T06:28:50.630Z,5.13
2023-03-29T06:31:19.870Z,8.20
2023-03-29T06:33:49.414Z,6.93
2023-03-29T06:36:26.474Z,6.95
2023-03-29T06:38:53.770Z,8.55
2023-03-29T06:41:36.682Z,6.00
2023-03-29T06:44:06.146Z,6.63
2023-03-29T06:46:37.600Z,4.57
2023-03-29T06:49:08.096Z,4.75
2023-03-29T06:51:44.388Z,6.78
2023-03-29T06:54:11.636Z,4.75
2023-03-29T06:56:47.323Z,6.95
2023-03-29T06:59:15.645Z,6.45
2023-03-29T07:01:49.106Z,4.72
2023-03-29T07:04:35.757Z,5.63
2023-03-29T07:07:19.772Z,6.40
2023-03-29T07:09:55.622Z,7.07
2023-03-29T07:12:24.878Z,4.95
2023-03-29T07:14:54.246Z,6.05
2023-03-29T07:17:22.650Z,6.55
2023-03-29T07:19:49.351Z,5.72
2023-03-29T07:22:34.545Z,7.53
2023-03-29T07:25:01.422Z,6.65
2023-03-29T07:27:31.620Z,4.72
2023-03-29T07:29:58.305Z,7.85
2023-03-29T07:32:25.182Z,6.07
2023-03-29T07:35:05.214Z,5.72
2023-03-29T07:37:37.357Z,5.85
2023-03-29T07:40:12.769Z,6.30
2023-03-29T07:43:10.935Z,7.72
2023-03-29T07:45:37.579Z,11.60
2023-03-29T07:48:11.339Z,7.05
2023-03-29T07:50:51.484Z,6.25
2023-03-29T07:53:23.102Z,7.07
2023-03-29T07:55:52.482Z,6.65
2023-03-29T07:58:41.000Z,8.57
2023-03-29T08:01:08.389Z,6.60
2023-03-29T08:03:53.585Z,5.70
2023-03-29T08:06:26.572Z,6.43
2023-03-29T08:08:53.644Z,7.63
2023-03-29T08:11:20.129Z,7.53
2023-03-29T08:13:59.013Z,6.95
2023-03-29T08:16:45.977Z,9.00
2023-03-29T08:19:15.150Z,8.38
2023-03-29T08:22:14.636Z,11.35
2023-03-29T08:24:59.598Z,7.15
2023-03-29T08:27:33.421Z,6.93
2023-03-29T08:30:00.900Z,9.73
2023-03-29T08:32:28.139Z,7.18
2023-03-29T08:34:55.090Z,8.60
2023-03-29T08:37:25.921Z,9.32
2023-03-29T08:39:54.832Z,10.32
2023-03-29T08:42:49.119Z,8.43
2023-03-29T08:45:42.013Z,8.40
2023-03-29T08:48:18.667Z,10.05
2023-03-29T08:50:54.554Z,9.52
2023-03-29T08:53:45.055Z,9.55
2023-03-29T08:56:21.699Z,8.40
2023-03-29T08:59:31.311Z,11.38
2023-03-29T09:02:02.524Z,9.18
2023-03-29T09:04:36.389Z,11.48
2023-03-29T09:07:23.004Z,12.50
2023-03-29T09:09:50.885Z,10.65
2023-03-29T09:12:54.854Z,10.65
2023-03-29T09:15:33.087Z,9.15
2023-03-29T09:18:58.115Z,8.77
2023-03-29T09:21:49.354Z,11.88
2023-03-29T09:24:43.693Z,13.90
2023-03-29T09:27:50.987Z,9.05
2023-03-29T09:30:30.725Z,11.13
2023-03-29T09:33:19.865Z,10.93
2023-03-29T09:36:46.338Z,10.63
2023-03-29T09:39:14.984Z,10.65
2023-03-29T09:41:57.101Z,8.77
2023-03-29T09:44:31.366Z,9.95
2023-03-29T09:47:25.135Z,11.77
2023-03-29T09:49:59.086Z,15.18
2023-03-29T09:52:25.693Z,6.95
2023-03-29T09:55:04.384Z,9.88
2023-03-29T09:57:53.465Z,10.68
2023-03-29T10:00:20.554Z,9.18
2023-03-29T10:02:54.704Z,10.32
2023-03-29T10:05:31.994Z,9.48
2023-03-29T10:08:01.184Z,12.48
2023-03-29T10:10:31.869Z,9.50
2023-03-29T10:13:05.912Z,11.43
2023-03-29T10:15:32.832Z,9.73
2023-03-29T10:18:03.335Z,10.93
2023-03-29T10:20:29.985Z,9.73
2023-03-29T10:22:58.738Z,10.05
2023-03-29T10:25:32.930Z,10.23
2023-03-29T10:28:16.042Z,11.48
2023-03-29T10:30:44.624Z,9.70
2023-03-29T10:33:21.085Z,9.80
2023-03-29T10:35:48.792Z,9.75
2023-03-29T10:38:20.866Z,12.30
2023-03-29T10:40:52.505Z,12.30
2023-03-29T10:43:26.445Z,10.88
2023-03-29T10:46:05.823Z,10.00
2023-03-29T10:48:35.270Z,10.93
2023-03-29T10:51:03.243Z,11.43
2023-03-29T10:53:35.724Z,13.30
2023-03-29T10:56:22.910Z,11.07
2023-03-29T10:59:09.128Z,13.32
2023-03-29T11:01:38.345Z,13.13
2023-03-29T11:04:19.465Z,10.25
2023-03-29T11:07:10.876Z,13.27
2023-03-29T11:10:02.042Z,16.42
2023-03-29T11:12:40.827Z,12.15
2023-03-29T11:15:32.163Z,11.32
2023-03-29T11:18:04.129Z,13.35
2023-03-29T11:20:37.751Z,13.75
2023-03-29T11:23:25.358Z,12.95
2023-03-29T11:26:04.815Z,12.25
2023-03-29T11:28:45.649Z,10.68
2023-03-29T11:31:45.550Z,11.98
2023-03-29T11:34:29.714Z,12.07
2023-03-29T11:37:20.261Z,14.90
2023-03-29T11:40:06.988Z,12.07
2023-03-29T11:42:39.086Z,12.98
2023-03-29T11:45:12.142Z,11.40
2023-03-29T11:47:40.860Z,11.45
2023-03-29T11:50:17.166Z,13.90
2023-03-29T11:52:51.486Z,13.90
2023-03-29T11:55:23.482Z,10.52
2023-03-29T11:57:53.913Z,12.65
2023-03-29T12:00:27.402Z,10.75
2023-03-29T12:03:09.795Z,13.63
2023-03-29T12:06:04.401Z,11.80
2023-03-29T12:08:49.992Z,12.65
2023-03-29T12:11:29.416Z,14.63
2023-03-29T12:14:15.588Z,13.82
2023-03-29T12:16:52.072Z,13.00
2023-03-29T12:19:25.728Z,13.63
2023-03-29T12:21:55.260Z,15.75
2023-03-29T12:24:22.959Z,15.48
2023-03-29T12:27:20.730Z,15.63
2023-03-29T12:29:50.501Z,15.52
2023-03-29T12:33:04.892Z,15.63
2023-03-29T12:36:06.003Z,15.00
2023-03-29T12:39:02.205Z,15.43
2023-03-29T12:41:51.634Z,14.82
2023-03-29T12:44:36.805Z,15.43
2023-03-29T12:47:23.396Z,15.63
2023-03-29T12:49:56.519Z,19.65
2023-03-29T12:52:31.542Z,18.30
2023-03-29T12:55:01.272Z,17.52
2023-03-29T12:57:42.544Z,17.70
2023-03-29T13:00:22.599Z,14.80
2023-03-29T13:03:03.884Z,14.82
2023-03-29T13:05:34.410Z,15.80
2023-03-29T13:08:31.757Z,15.02
2023-03-29T13:10:58.681Z,15.27
2023-03-29T13:13:33.033Z,18.15
2023-03-29T13:16:14.862Z,16.02
2023-03-29T13:19:00.440Z,16.55
2023-03-29T13:21:59.809Z,19.50
2023-03-29T13:24:26.196Z,17.58
2023-03-29T13:27:14.391Z,18.85
2023-03-29T13:30:18.978Z,20.88
2023-03-29T13:33:15.349Z,17.10
2023-03-29T13:35:50.326Z,16.90
2023-03-29T13:38:31.277Z,14.38
2023-03-29T13:41:03.981Z,14.43
2023-03-29T13:43:32.309Z,16.73
2023-03-29T13:45:58.725Z,15.40
2023-03-29T13:48:31.652Z,13.57
2023-03-29T13:51:07.936Z,15.23
2023-03-29T13:53:36.321Z,12.80
2023-03-29T13:56:03.677Z,14.57
2023-03-29T14:01:48.151Z,15.70
2023-03-29T14:04:23.754Z,15.40
2023-03-29T14:06:56.260Z,16.83
2023-03-29T14:09:29.959Z,17.23
2023-03-29T14:11:59.261Z,13.68
2023-03-29T14:14:28.405Z,14.80
2023-03-29T14:16:56.580Z,15.13
2023-03-29T14:19:29.115Z,15.45
2023-03-29T14:21:58.223Z,14.68
2023-03-29T14:24:48.012Z,15.73
2023-03-29T14:27:16.226Z,13.35
2023-03-29T14:29:46.530Z,15.95
2023-03-29T14:32:18.451Z,14.15
2023-03-29T14:34:49.314Z,12.60
2023-03-29T14:37:22.825Z,14.45
2023-03-29T14:39:50.121Z,12.27
2023-03-29T14:42:24.395Z,13.95
2023-03-29T14:44:51.032Z,13.10
2023-03-29T14:47:26.072Z,14.25
2023-03-29T14:49:54.422Z,13.18
2023-03-29T14:52:21.254Z,15.48
2023-03-29T14:54:53.266Z,11.10
2023-03-29T14:57:24.387Z,11.57
2023-03-29T14:59:58.937Z,11.55
2023-03-29T15:02:31.082Z,10.98
2023-03-29T15:05:07.458Z,10.20
2023-03-29T15:07:36.402Z,11.27
2023-03-29T15:10:06.290Z,11.70
2023-03-29T15:12:33.731Z,11.50
2023-03-29T15:15:01.437Z,10.15
2023-03-29T15:17:49.475Z,12.05
2023-03-29T15:20:34.404Z,10.05
2023-03-29T15:23:14.343Z,11.77
2023-03-29T15:26:15.386Z,11.82
2023-03-29T15:29:07.420Z,11.55
2023-03-29T15:31:36.953Z,9.98
2023-03-29T15:34:09.263Z,9.48
2023-03-29T15:36:42.069Z,10.07
2023-03-29T15:39:13.710Z,11.05
2023-03-29T15:41:41.496Z,8.63
2023-03-29T15:44:08.375Z,9.57
2023-03-29T15:46:34.872Z,7.40
2023-03-29T15:49:01.646Z,8.35
2023-03-29T15:51:28.169Z,7.88
2023-03-29T15:53:54.662Z,8.60
2023-03-29T15:56:22.839Z,8.18
2023-03-29T15:58:49.419Z,6.47
2023-03-29T16:01:23.476Z,8.00
2023-03-29T16:03:50.873Z,7.82
2023-03-29T16:06:17.776Z,8.20
2023-03-29T16:08:45.057Z,7.72
2023-03-29T16:11:11.676Z,9.02
2023-03-29T16:13:38.246Z,7.60
2023-03-29T16:16:05.309Z,6.97
2023-03-29T16:18:32.060Z,8.60
2023-03-29T16:20:59.361Z,8.35
2023-03-29T16:23:26.487Z,9.73
2023-03-29T16:25:53.092Z,6.63
2023-03-29T16:28:19.623Z,7.85
2023-03-29T16:30:46.553Z,8.25
2023-03-29T16:33:13.169Z,10.73
2023-03-29T16:35:40.765Z,7.10
2023-03-29T16:38:08.531Z,7.60
2023-03-29T16:40:36.073Z,6.93
2023-03-29T16:43:02.828Z,7.93
2023-03-29T16:45:29.651Z,9.00
2023-03-29T16:47:56.913Z,5.70
2023-03-29T16:50:23.831Z,5.68
2023-03-29T16:52:52.475Z,7.95
2023-03-29T16:55:19.523Z,8.15
2023-03-29T16:57:47.392Z,7.72
2023-03-29T17:00:16.201Z,6.55
2023-03-29T17:05:11.730Z,7.93
2023-03-29T17:07:39.337Z,11.50
2023-03-29T17:10:08.173Z,9.90
2023-03-29T17:12:35.291Z,7.30
2023-03-29T17:15:01.998Z,6.57
2023-03-29T17:17:28.737Z,7.22
2023-03-29T17:19:56.494Z,10.18
2023-03-29T17:22:24.090Z,7.07
2023-03-29T17:24:50.552Z,10.85
2023-03-29T17:27:17.442Z,8.55
2023-03-29T17:29:43.909Z,13.10
2023-03-29T17:32:10.439Z,8.82
2023-03-29T17:34:37.285Z,8.02
2023-03-29T17:37:04.158Z,7.88
2023-03-29T17:39:30.936Z,7.32
2023-03-29T17:41:57.776Z,7.55
2023-03-29T17:44:24.217Z,9.20
2023-03-29T17:46:50.807Z,8.38
2023-03-29T17:49:17.473Z,6.10
2023-03-29T17:51:43.965Z,8.52
2023-03-29T17:54:10.480Z,6.82
2023-03-29T17:56:36.964Z,9.05
2023-03-29T17:59:03.464Z,8.98
2023-03-29T18:01:30.729Z,7.28
2023-03-29T18:03:57.249Z,9.07
2023-03-29T18:06:23.785Z,8.70
2023-03-29T18:08:50.391Z,9.13
2023-03-29T18:11:22.398Z,8.95
2023-03-29T18:13:50.400Z,9.98
2023-03-29T18:16:17.075Z,7.03
2023-03-29T18:18:43.741Z,10.32
2023-03-29T18:21:10.776Z,9.25
2023-03-29T18:23:42.996Z,10.77
2023-03-29T18:26:09.513Z,9.00
2023-03-29T18:28:37.548Z,8.25
2023-03-29T18:31:05.066Z,7.70
2023-03-29T18:33:35.150Z,10.25
2023-03-29T18:36:09.327Z,6.05
2023-03-29T18:38:40.354Z,8.55
2023-03-29T18:41:08.333Z,7.80
2023-03-29T18:43:35.513Z,8.38
2023-03-29T18:46:02.511Z,6.95
2023-03-29T18:48:29.217Z,8.52
2023-03-29T18:50:57.160Z,9.55
2023-03-29T18:53:24.205Z,9.77
2023-03-29T18:55:50.993Z,9.18
2023-03-29T18:58:17.810Z,7.70
2023-03-29T19:00:44.507Z,8.30
2023-03-29T19:03:11.260Z,9.30
2023-03-29T19:05:39.345Z,7.45
2023-03-29T19:08:07.005Z,7.07
2023-03-29T19:10:37.865Z,7.25
2023-03-29T19:13:05.042Z,8.43
2023-03-29T19:15:32.464Z,7.72
2023-03-29T19:17:59.031Z,8.88
2023-03-29T19:20:26.792Z,6.95
2023-03-29T19:22:53.619Z,6.88
2023-03-29T19:25:20.608Z,8.20
2023-03-29T19:27:47.963Z,8.18
2023-03-29T19:30:15.120Z,7.78
2023-03-29T19:32:41.907Z,6.55
2023-03-29T19:35:09.550Z,8.80
2023-03-29T19:37:36.176Z,7.13
2023-03-29T19:40:02.643Z,7.07
2023-03-29T19:42:29.083Z,7.45
2023-03-29T19:44:55.557Z,8.60
2023-03-29T19:47:21.990Z,11.23
2023-03-29T19:49:48.487Z,5.72
2023-03-29T19:52:14.881Z,7.57
2023-03-29T19:54:42.545Z,6.40
2023-03-29T19:57:09.095Z,7.13
2023-03-29T19:59:37.670Z,9.05
2023-03-29T20:02:04.545Z,6.15
2023-03-29T20:04:33.292Z,8.40
2023-03-29T20:09:26.373Z,8.40
2023-03-29T20:11:52.864Z,10.18
2023-03-29T20:14:19.317Z,11.00
2023-03-29T20:16:46.189Z,11.63
2023-03-29T20:19:14.015Z,10.73
2023-03-29T20:21:40.674Z,11.23
2023-03-29T20:24:08.567Z,11.77
2023-03-29T20:26:35.540Z,11.32
2023-03-29T20:29:02.610Z,9.85
2023-03-29T20:31:29.990Z,11.05
2023-03-29T20:33:57.620Z,10.35
2023-03-29T20:36:24.600Z,10.27
2023-03-29T20:38:51.395Z,9.68
2023-03-29T20:41:19.565Z,8.00
2023-03-29T20:43:46.192Z,10.13
2023-03-29T20:46:18.316Z,8.18
2023-03-29T20:48:54.163Z,8.55
2023-03-29T20:51:22.691Z,8.43
2023-03-29T20:53:50.329Z,7.82
2023-03-29T20:56:17.211Z,9.00
2023-03-29T20:58:43.818Z,6.95
2023-03-29T21:01:14.141Z,9.43
2023-03-29T21:03:42.170Z,6.75
2023-03-29T21:06:09.531Z,6.82
2023-03-29T21:08:36.028Z,7.30
2023-03-29T21:11:03.030Z,7.90
2023-03-29T21:13:29.970Z,7.38
2023-03-29T21:15:56.945Z,7.95
2023-03-29T21:18:23.609Z,7.68
2023-03-29T21:20:51.081Z,6.82
2023-03-29T21:23:17.530Z,9.95
2023-03-29T21:25:44.021Z,8.70
2023-03-29T21:28:10.905Z,8.18
2023-03-29T21:30:37.444Z,5.93
2023-03-29T21:33:04.206Z,9.38
2023-03-29T21:35:33.267Z,5.60
2023-03-29T21:38:00.939Z,6.38
2023-03-29T21:40:27.671Z,10.13
2023-03-29T21:42:54.109Z,6.72
2023-03-29T21:45:20.525Z,6.82
2023-03-29T21:47:47.028Z,7.20
2023-03-29T21:50:13.654Z,8.30
2023-03-29T21:52:40.310Z,7.10
2023-03-29T21:55:07.402Z,8.52
2023-03-29T21:57:34.378Z,8.73
2023-03-29T22:00:00.828Z,7.97
2023-03-29T22:02:27.411Z,6.20
2023-03-29T22:04:53.927Z,5.95
2023-03-29T22:07:22.625Z,6.95
2023-03-29T22:09:49.209Z,5.57
2023-03-29T22:12:15.730Z,8.45
2023-03-29T22:14:42.262Z,9.90
2023-03-29T22:17:09.532Z,8.95
2023-03-29T22:19:39.718Z,6.95
2023-03-29T22:22:13.056Z,8.35
2023-03-29T22:24:40.701Z,10.30
2023-03-29T22:27:07.253Z,8.40
2023-03-29T22:29:33.788Z,6.72
2023-03-29T22:32:00.268Z,6.57
2023-03-29T22:34:28.004Z,8.65
2023-03-29T22:36:54.448Z,6.22
2023-03-29T22:39:21.079Z,9.93
2023-03-29T22:41:47.493Z,11.23
2023-03-29T22:44:13.944Z,7.47
2023-03-29T22:46:40.401Z,9.23
2023-03-29T22:49:07.033Z,8.50
2023-03-29T22:51:33.566Z,9.57
2023-03-29T22:54:00.001Z,6.60
2023-03-29T22:56:27.195Z,11.10
2023-03-29T22:58:53.703Z,7.20
2023-03-29T23:01:20.226Z,7.28
2023-03-29T23:03:46.803Z,10.18
2023-03-29T23:06:13.328Z,6.53
2023-03-29T23:08:39.838Z,9.73
2023-03-29T23:11:07.433Z,6.38
2023-03-29T23:13:35.030Z,7.18
2023-03-29T23:16:03.539Z,8.93
2023-03-29T23:18:31.855Z,6.55
2023-03-29T23:20:59.004Z,6.63
2023-03-29T23:23:27.257Z,10.73
2023-03-29T23:25:55.352Z,6.68
2023-03-29T23:28:26.947Z,5.97
2023-03-29T23:31:00.094Z,7.10
2023-03-29T23:33:27.129Z,8.68
2023-03-29T23:35:54.770Z,8.23
2023-03-29T23:38:21.249Z,7.20
2023-03-29T23:41:00.305Z,7.90
2023-03-29T23:43:32.500Z,8.15
2023-03-29T23:46:00.990Z,6.13
2023-03-29T23:48:28.082Z,5.65
2023-03-29T23:50:57.132Z,4.85
2023-03-29T23:53:25.415Z,10.55
2023-03-29T23:55:52.014Z,7.72
2023-03-29T23:58:18.476Z,7.05
